Time;durP1;ratioP1;P1;durP2;ratioP2;P2;SDS_P1;SDS_P2;PMS_P1;PMS_P2;Temp;Humidity;BMP_temperature;BMP_pressure;BME280_temperature;BME280_humidity;BME280_pressure;Samples;Min_cycle;Max_cycle;Signal;HPM_P1;HPM_P2
2022/08/11 00:02:33;;;;;;;8.00;4.22;;;18.90;99.90;;;;;;5073038;28;20041;-59
2022/08/11 00:05:12;;;;;;;7.90;4.47;;;18.80;99.90;;;;;;5054961;28;20045;-58
2022/08/11 00:08:02;;;;;;;7.65;4.72;;;18.80;99.90;;;;;;5072731;28;20072;-58
2022/08/11 00:10:29;;;;;;;7.65;4.30;;;18.80;99.90;;;;;;5072469;28;20499;-58
2022/08/11 00:12:56;;;;;;;5.45;4.40;;;18.70;99.90;;;;;;5072335;28;20506;-58
2022/08/11 00:15:35;;;;;;;7.05;4.70;;;18.70;99.90;;;;;;5072521;28;20416;-58
2022/08/11 00:18:02;;;;;;;6.35;4.25;;;18.70;99.90;;;;;;5054187;28;20502;-59
2022/08/11 00:20:34;;;;;;;4.88;4.20;;;18.70;99.90;;;;;;5072049;28;20155;-59
2022/08/11 00:23:07;;;;;;;5.55;4.30;;;18.60;99.90;;;;;;5072185;28;20077;-59
2022/08/11 00:25:48;;;;;;;6.50;4.55;;;18.80;99.90;;;;;;5072244;28;20071;-59
2022/08/11 00:28:33;;;;;;;10.55;4.53;;;18.60;99.90;;;;;;5072354;28;20075;-58
2022/08/11 00:31:07;;;;;;;7.68;4.40;;;18.60;99.90;;;;;;5071733;28;20044;-58
2022/08/11 00:33:41;;;;;;;7.57;4.53;;;18.50;99.90;;;;;;5037246;28;20504;-59
2022/08/11 00:36:09;;;;;;;9.40;4.43;;;18.50;99.90;;;;;;5054128;28;20087;-58
2022/08/11 00:38:39;;;;;;;7.15;4.72;;;17.90;99.90;;;;;;5071663;28;20051;-58
2022/08/11 00:41:24;;;;;;;9.45;4.43;;;18.50;99.90;;;;;;5054225;28;20093;-58
2022/08/11 00:44:14;;;;;;;7.35;4.80;;;18.30;99.90;;;;;;5072025;28;20112;-58
2022/08/11 00:46:54;;;;;;;8.52;4.70;;;18.30;99.90;;;;;;5071899;28;20066;-58
2022/08/11 00:49:37;;;;;;;8.30;4.88;;;18.20;99.90;;;;;;5071884;28;20041;-58
2022/08/11 00:52:31;;;;;;;7.20;5.40;;;18.10;99.90;;;;;;5054213;28;20048;-58
2022/08/11 00:55:42;;;;;;;7.88;4.90;;;18.40;99.90;;;;;;5053748;28;20051;-59
2022/08/11 00:58:45;;;;;;;6.10;5.10;;;17.80;99.90;;;;;;5040192;28;20058;-58
2022/08/11 01:01:17;;;;;;;9.82;5.65;;;20.40;99.90;;;;;;5034819;23;20049;-52
2022/08/11 01:04:13;;;;;;;9.95;5.70;;;17.90;99.90;;;;;;5021080;28;20046;-51
2022/08/11 01:06:49;;;;;;;8.13;5.78;;;19.00;99.90;;;;;;5016005;28;20048;-52
2022/08/11 01:09:33;;;;;;;8.23;5.95;;;17.80;99.90;;;;;;5011580;28;20511;-51
2022/08/11 01:12:34;;;;;;;12.50;6.03;;;17.70;99.90;;;;;;5030221;28;20048;-49
2022/08/11 01:15:26;;;;;;;7.80;5.70;;;17.70;99.90;;;;;;5029750;28;20049;-53
2022/08/11 01:18:26;;;;;;;9.13;6.25;;;17.60;99.90;;;;;;4977825;28;20401;-48
2022/08/11 01:21:04;;;;;;;8.50;5.78;;;17.50;99.90;;;;;;4992444;28;20046;-51
2022/08/11 01:23:51;;;;;;;13.30;6.00;;;17.50;99.90;;;;;;5010549;28;20325;-52
2022/08/11 01:26:47;;;;;;;14.50;6.80;;;17.50;99.90;;;;;;5010594;28;20125;-52
2022/08/11 01:29:22;;;;;;;;;;;17.50;99.90;;;;;;4993456;28;20184;-49
2022/08/11 01:32:14;;;;;;;10.75;6.22;;;17.40;99.90;;;;;;4992723;28;19960;-48
2022/08/11 01:34:51;;;;;;;10.40;6.20;;;17.40;99.90;;;;;;5010124;28;20042;-51
2022/08/11 01:37:51;;;;;;;7.63;6.28;;;17.40;99.90;;;;;;5010410;28;20041;-48
2022/08/11 01:40:38;;;;;;;11.90;6.53;;;17.40;99.90;;;;;;4992401;28;20045;-51
2022/08/11 01:46:36;;;;;;;10.98;6.57;;;17.40;99.90;;;;;;5010752;28;20087;-49
2022/08/11 01:49:13;;;;;;;9.73;6.28;;;17.30;99.90;;;;;;5009715;28;20465;-52
2022/08/11 01:52:06;;;;;;;10.45;6.88;;;17.20;99.90;;;;;;5010544;28;20038;-51
2022/08/11 01:54:52;;;;;;;8.50;6.15;;;17.30;99.90;;;;;;4992884;28;20051;-53
2022/08/11 01:57:34;;;;;;;8.35;6.45;;;17.20;99.90;;;;;;4993324;28;20467;-53
2022/08/11 02:00:15;;;;;;;8.52;6.18;;;17.20;99.90;;;;;;5009817;28;20038;-51
2022/08/11 02:03:05;;;;;;;7.93;6.43;;;17.20;99.90;;;;;;5009624;28;20135;-48
2022/08/11 02:05:40;;;;;;;10.15;7.07;;;17.20;99.90;;;;;;5010153;28;20065;-50
2022/08/11 02:08:14;;;;;;;14.02;6.82;;;17.10;99.90;;;;;;5009836;28;20091;-52
2022/08/11 02:13:45;;;;;;;13.40;7.13;;;17.10;99.90;;;;;;5029891;28;20042;-51
2022/08/11 02:16:38;;;;;;;28.23;7.30;;;17.10;99.90;;;;;;5030221;28;20380;-50
2022/08/11 02:25:50;;;;;;;10.23;7.10;;;17.10;99.90;;;;;;5033046;28;20049;-53
2022/08/11 02:28:16;;;;;;;13.48;7.95;;;17.00;99.90;;;;;;5033605;28;20049;-52
2022/08/11 02:33:49;;;;;;;15.57;7.75;;;17.00;99.90;;;;;;5014474;28;20060;-50
2022/08/11 02:36:30;;;;;;;13.32;7.63;;;16.90;99.90;;;;;;5016083;28;20046;-49
2022/08/11 02:39:08;;;;;;;10.35;7.93;;;17.00;99.90;;;;;;5015150;28;20503;-50
2022/08/11 02:45:04;;;;;;;15.75;7.72;;;17.00;99.90;;;;;;5014962;28;20049;-51
2022/08/11 02:49:52;;;;;;;12.68;8.07;;;16.90;99.90;;;;;;5033181;28;20537;-50
2022/08/11 02:50:34;;;;;;;13.85;7.80;;;16.90;99.90;;;;;;5032581;28;20125;-49
2022/08/11 02:53:10;;;;;;;10.88;7.63;;;16.90;99.90;;;;;;5032355;28;20041;-50
2022/08/11 02:56:03;;;;;;;9.23;7.45;;;16.90;99.90;;;;;;5033272;28;20116;-48
2022/08/11 02:59:48;;;;;;;9.75;7.20;;;16.90;99.90;;;;;;5032809;28;20039;-51
2022/08/11 03:01:57;;;;;;;9.77;7.63;;;16.80;99.90;;;;;;5032292;28;20057;-50
2022/08/11 03:04:39;;;;;;;9.40;7.70;;;16.80;99.90;;;;;;5015136;28;20057;-50
2022/08/11 03:07:24;;;;;;;11.85;7.40;;;16.80;99.90;;;;;;5032412;28;20049;-52
2022/08/11 03:10:09;;;;;;;10.52;7.47;;;16.90;99.90;;;;;;5014124;28;20053;-48
2022/08/11 03:19:15;;;;;;;13.30;8.05;;;16.80;99.90;;;;;;5032408;28;20581;-49
2022/08/11 03:21:54;;;;;;;10.93;7.30;;;16.80;99.90;;;;;;4916275;29;20055;-47
2022/08/11 03:24:50;;;;;;;9.88;7.70;;;16.70;99.90;;;;;;4917322;29;20134;-49
2022/08/11 03:27:45;;;;;;;11.55;7.95;;;16.70;99.90;;;;;;4916720;29;20411;-50
2022/08/11 03:30:20;;;;;;;13.25;8.20;;;16.60;99.90;;;;;;4899094;29;20044;-51
2022/08/11 03:36:20;;;;;;;14.57;9.10;;;16.60;99.90;;;;;;4931802;29;20068;-48
2022/08/11 03:39:12;;;;;;;12.20;8.63;;;16.60;99.90;;;;;;4915734;29;20150;-50
2022/08/11 03:41:55;;;;;;;15.18;9.13;;;16.60;99.90;;;;;;4932645;29;20046;-50
2022/08/11 03:45:04;;;;;;;13.50;9.40;;;16.60;99.90;;;;;;4932184;29;20082;-49
2022/08/11 03:47:30;;;;;;;10.43;7.80;;;16.60;99.90;;;;;;4932384;29;20187;-49
2022/08/11 03:50:27;;;;;;;9.48;7.63;;;16.60;99.90;;;;;;4931539;29;20392;-48
2022/08/11 03:53:28;;;;;;;10.52;8.05;;;16.50;99.90;;;;;;4931433;29;20131;-49
2022/08/11 03:56:30;;;;;;;12.25;8.38;;;17.10;99.90;;;;;;4931790;29;20106;-56
2022/08/11 03:59:22;;;;;;;9.98;8.10;;;16.50;99.90;;;;;;4989422;28;20057;-56
2022/08/11 04:02:16;;;;;;;11.50;8.77;;;16.40;99.90;;;;;;4980545;28;20154;-56
2022/08/11 04:05:13;;;;;;;11.75;8.88;;;16.40;99.90;;;;;;5030961;28;20099;-56
2022/08/11 04:08:08;;;;;;;11.63;8.63;;;16.40;99.90;;;;;;5031199;28;20095;-57
2022/08/11 04:11:02;;;;;;;12.52;8.88;;;16.40;99.90;;;;;;5031632;28;20045;-57
2022/08/11 04:17:21;;;;;;;11.27;8.20;;;16.30;99.90;;;;;;4950387;29;20462;-57
2022/08/11 04:20:27;;;;;;;10.82;7.75;;;16.30;99.90;;;;;;4949555;29;20051;-57
2022/08/11 04:23:19;;;;;;;10.95;7.50;;;16.30;99.90;;;;;;4950299;29;20392;-56
2022/08/11 04:26:24;;;;;;;11.20;7.40;;;16.30;99.90;;;;;;4950378;29;20043;-56
2022/08/11 04:29:05;;;;;;;8.77;6.45;;;16.30;99.90;;;;;;4934596;29;20039;-56
2022/08/11 04:31:37;;;;;;;15.02;7.53;;;16.30;99.90;;;;;;4950465;29;20039;-57
2022/08/11 04:34:13;;;;;;;12.35;7.82;;;16.30;99.90;;;;;;4933671;29;20142;-58
2022/08/11 04:40:25;;;;;;;12.30;7.95;;;16.00;99.90;;;;;;4949487;29;20063;-57
2022/08/11 04:43:21;;;;;;;10.00;7.43;;;16.20;99.90;;;;;;4949517;28;20031;-57
2022/08/11 04:46:09;;;;;;;9.70;7.57;;;16.20;99.90;;;;;;4934106;29;20078;-57
2022/08/11 05:01:41;;;;;;;17.67;9.15;;;16.40;99.90;;;;;;5029920;28;20176;-57
2022/08/11 05:07:48;;;;;;;14.52;8.80;;;16.50;99.90;;;;;;5029912;28;20045;-58
2022/08/11 05:10:56;;;;;;;12.90;8.70;;;16.60;99.90;;;;;;5011831;28;20056;-57
2022/08/11 05:36:49;;;;;;;11.52;5.65;;;23.40;99.90;;;;;;4914009;29;20087;-59
2022/08/11 05:56:15;;;;;;;11.63;4.80;;;28.00;91.10;;;;;;5031111;28;20073;-59
2022/08/11 05:58:44;;;;;;;8.00;4.50;;;28.60;87.40;;;;;;5032420;28;20104;-59
2022/08/11 06:01:11;;;;;;;8.88;4.70;;;29.00;82.80;;;;;;4995306;28;1064429;-60
2022/08/11 06:06:26;;;;;;;6.55;4.40;;;30.20;73.20;;;;;;5033369;28;20072;-60
2022/08/11 06:08:56;;;;;;;9.50;4.30;;;30.70;70.10;;;;;;5033315;28;20037;-60
2022/08/11 06:11:23;;;;;;;10.27;4.40;;;31.00;65.70;;;;;;5034214;28;20037;-60
2022/08/11 06:13:51;;;;;;;7.05;4.03;;;31.30;63.40;;;;;;5033078;28;20116;-59
2022/08/11 06:16:23;;;;;;;5.95;4.25;;;31.70;62.30;;;;;;5033210;28;20060;-59
2022/08/11 06:18:50;;;;;;;7.63;4.43;;;32.00;59.70;;;;;;5015144;28;20485;-59
2022/08/11 06:21:16;;;;;;;9.45;4.18;;;32.20;58.30;;;;;;5033593;28;20516;-59
2022/08/11 06:23:43;;;;;;;8.27;4.15;;;32.20;56.80;;;;;;5033465;28;20077;-60
2022/08/11 06:26:13;;;;;;;7.72;4.20;;;32.40;56.10;;;;;;5015523;28;20034;-58
2022/08/11 06:28:43;;;;;;;7.72;3.85;;;32.90;54.60;;;;;;5032347;28;20159;-60
2022/08/11 06:31:16;;;;;;;7.80;4.05;;;33.10;53.30;;;;;;5033190;28;20041;-60
2022/08/11 06:34:03;;;;;;;5.35;3.90;;;33.30;52.20;;;;;;5015945;28;20053;-58
2022/08/11 06:36:45;;;;;;;6.70;3.65;;;33.50;51.60;;;;;;5033448;28;20050;-59
2022/08/11 06:39:23;;;;;;;5.45;3.30;;;33.70;51.10;;;;;;5033196;28;20369;-58
2022/08/11 06:41:56;;;;;;;7.07;3.60;;;34.20;50.40;;;;;;5032732;28;20497;-60
2022/08/11 06:44:42;;;;;;;8.15;3.63;;;34.60;48.70;;;;;;5032798;28;20045;-60
2022/08/11 06:47:10;;;;;;;8.38;3.55;;;34.80;46.50;;;;;;5033213;28;20107;-60
2022/08/11 06:52:35;;;;;;;6.40;3.30;;;34.60;47.10;;;;;;5010812;28;20034;-59
2022/08/11 06:55:11;;;;;;;14.70;3.47;;;35.00;46.70;;;;;;5027990;28;20136;-59
2022/08/11 07:00:27;;;;;;;6.18;3.00;;;35.60;45.30;;;;;;5031468;28;20176;-59
2022/08/11 07:03:07;;;;;;;10.63;3.42;;;35.40;44.60;;;;;;5020209;28;20049;-59
2022/08/11 07:05:57;;;;;;;4.13;2.85;;;35.50;44.60;;;;;;5031521;28;20121;-59
2022/08/11 07:17:42;;;;;;;13.15;3.05;;;35.50;42.80;;;;;;5031468;28;20060;-58
2022/08/11 07:31:28;;;;;;;7.55;2.50;;;35.70;42.70;;;;;;5031721;28;20095;-58
2022/08/11 07:34:17;;;;;;;10.27;2.70;;;35.70;42.40;;;;;;5012942;28;20073;-59
2022/08/11 07:36:56;;;;;;;8.65;2.70;;;35.60;41.90;;;;;;5031880;28;20068;-60
2022/08/11 07:39:30;;;;;;;9.27;2.80;;;35.10;43.30;;;;;;5014248;28;20052;-60
2022/08/11 07:41:58;;;;;;;6.73;2.30;;;34.20;44.10;;;;;;5031312;28;20396;-58
2022/08/11 07:44:27;;;;;;;10.13;2.50;;;33.80;45.20;;;;;;5032130;28;20045;-58
2022/08/11 07:52:31;;;;;;;7.35;2.50;;;33.30;47.60;;;;;;5031884;28;20076;-60
2022/08/11 07:55:06;;;;;;;8.40;2.40;;;33.00;48.00;;;;;;5031365;28;20041;-58
2022/08/11 08:19:47;;;;;;;8.75;2.90;;;30.40;53.00;;;;;;5031008;28;20099;-60
2022/08/11 08:22:17;;;;;;;8.13;2.53;;;30.80;52.40;;;;;;5031195;28;20128;-59
2022/08/11 08:24:43;;;;;;;11.50;2.70;;;30.60;51.50;;;;;;5030130;28;20047;-60
2022/08/11 08:27:11;;;;;;;10.38;2.72;;;30.40;51.90;;;;;;5012271;28;20111;-60
2022/08/11 08:32:22;;;;;;;9.23;2.22;;;30.40;52.30;;;;;;5013201;28;20388;-60
2022/08/11 08:34:54;;;;;;;4.93;2.33;;;30.50;52.20;;;;;;5030366;28;20038;-59
2022/08/11 08:37:23;;;;;;;6.32;2.45;;;30.30;52.00;;;;;;5030896;28;20539;-53
2022/08/11 08:39:49;;;;;;;6.55;2.30;;;30.10;52.60;;;;;;5029265;28;20037;-52
2022/08/11 08:42:26;;;;;;;6.65;1.90;;;30.00;52.30;;;;;;5030920;28;20037;-54
2022/08/11 08:45:06;;;;;;;5.97;2.00;;;30.40;52.70;;;;;;5013182;28;20038;-53
2022/08/11 08:47:41;;;;;;;5.38;2.05;;;30.40;52.00;;;;;;5031283;28;20084;-53
2022/08/11 08:50:11;;;;;;;11.80;2.20;;;30.20;52.20;;;;;;5030529;28;20507;-54
2022/08/11 08:52:41;;;;;;;7.72;2.03;;;30.00;51.90;;;;;;5030588;28;20049;-52
2022/08/11 08:55:14;;;;;;;5.60;2.00;;;30.10;51.70;;;;;;5012163;28;20068;-53
2022/08/11 08:57:42;;;;;;;6.57;2.20;;;30.40;51.50;;;;;;5030839;28;20100;-56
2022/08/11 09:00:08;;;;;;;8.02;2.10;;;30.50;50.80;;;;;;5030334;28;20038;-54
2022/08/11 09:02:35;;;;;;;5.45;1.90;;;30.50;49.90;;;;;;5030632;28;20053;-53
2022/08/11 09:05:03;;;;;;;4.47;1.90;;;30.40;50.60;;;;;;4995638;28;20129;-54
2022/08/11 09:07:30;;;;;;;6.90;2.05;;;30.10;49.60;;;;;;5030607;28;20069;-53
2022/08/11 09:09:57;;;;;;;7.40;2.00;;;29.90;50.20;;;;;;5029377;28;20049;-54
2022/08/11 09:12:27;;;;;;;3.60;1.88;;;29.80;50.20;;;;;;5030450;28;20136;-54
2022/08/11 09:15:02;;;;;;;5.90;1.90;;;29.80;49.20;;;;;;5029402;28;20124;-54
2022/08/11 09:17:33;;;;;;;6.55;2.00;;;29.60;48.50;;;;;;5030252;28;20053;-54
2022/08/11 09:20:07;;;;;;;3.15;1.88;;;29.50;48.60;;;;;;5012282;28;20053;-54
2022/08/11 09:28:13;;;;;;;10.70;2.15;;;29.60;48.80;;;;;;5029489;28;20524;-53
2022/08/11 09:30:45;;;;;;;7.65;2.03;;;29.90;48.60;;;;;;5029604;28;20037;-54
2022/08/11 09:33:15;;;;;;;4.15;1.90;;;30.00;47.80;;;;;;5012572;28;20076;-54
2022/08/11 09:35:42;;;;;;;7.63;1.85;;;30.10;47.20;;;;;;5029741;28;20042;-54
2022/08/11 09:40:56;;;;;;;7.00;1.85;;;30.30;46.70;;;;;;5029437;28;20048;-53
2022/08/11 09:46:09;;;;;;;6.07;1.80;;;30.40;46.50;;;;;;5030052;28;20061;-54
2022/08/11 09:48:38;;;;;;;5.03;1.85;;;30.40;46.20;;;;;;5029801;28;20080;-54
2022/08/11 09:51:06;;;;;;;3.25;1.98;;;30.40;46.40;;;;;;5029152;28;20049;-54
2022/08/11 09:53:35;;;;;;;8.40;2.00;;;30.50;46.40;;;;;;4995417;28;20049;-54
2022/08/11 09:58:12;;;;;;;3.45;1.77;;;30.50;45.70;;;;;;5029755;28;20069;-54
2022/08/11 09:58:48;;;;;;;6.35;1.88;;;30.50;46.00;;;;;;5028762;28;20060;-55
2022/08/11 10:01:25;;;;;;;3.92;1.70;;;30.70;45.70;;;;;;5012057;28;20054;-55
2022/08/11 10:03:59;;;;;;;5.30;2.15;;;30.80;45.20;;;;;;5011859;28;20045;-54
2022/08/11 10:09:17;;;;;;;3.00;1.90;;;30.60;45.30;;;;;;5029284;28;20050;-54
2022/08/11 10:11:43;;;;;;;5.22;2.20;;;30.60;45.70;;;;;;5012214;28;20397;-55
2022/08/11 10:16:55;;;;;;;4.63;1.83;;;30.40;45.30;;;;;;5029231;28;20053;-54
2022/08/11 10:19:21;;;;;;;6.53;2.00;;;30.40;45.50;;;;;;5029558;28;20030;-55
2022/08/11 10:26:49;;;;;;;4.85;1.85;;;30.40;45.30;;;;;;5011015;28;20138;-55
2022/08/11 10:27:22;;;;;;;3.10;1.92;;;30.40;45.20;;;;;;5029799;28;20056;-54
2022/08/11 10:35:24;;;;;;;3.53;1.85;;;30.60;44.40;;;;;;5029029;28;20124;-54
2022/08/11 10:37:51;;;;;;;4.13;1.90;;;30.50;44.20;;;;;;5011496;28;20204;-55
2022/08/11 10:40:21;;;;;;;5.15;1.98;;;30.60;44.30;;;;;;5012105;28;20423;-55
2022/08/11 10:43:05;;;;;;;3.47;1.92;;;30.50;44.40;;;;;;5032592;28;20120;-54
2022/08/11 10:48:28;;;;;;;6.70;1.80;;;28.70;43.10;;;;;;5033069;28;20045;-54
2022/08/11 10:51:14;;;;;;;2.55;1.80;;;30.50;43.90;;;;;;5032258;28;20045;-55
2022/08/11 10:59:25;;;;;;;4.50;1.83;;;30.60;44.30;;;;;;5033009;28;20116;-54
2022/08/11 11:01:53;;;;;;;7.68;1.77;;;30.80;43.80;;;;;;5031930;28;20041;-53
2022/08/11 11:04:55;;;;;;;4.90;1.70;;;30.80;44.00;;;;;;5014663;28;20041;-53
2022/08/11 11:07:29;;;;;;;6.22;1.92;;;30.90;43.70;;;;;;5032938;28;20045;-54
2022/08/11 11:10:02;;;;;;;4.25;1.80;;;31.00;43.70;;;;;;5032144;28;20045;-53
2022/08/11 11:18:24;;;;;;;2.97;1.80;;;31.00;43.80;;;;;;5032496;28;20046;-55
2022/08/11 11:20:57;;;;;;;8.10;2.00;;;31.10;43.80;;;;;;5032116;28;20065;-54
2022/08/11 11:23:37;;;;;;;3.00;1.70;;;31.30;43.70;;;;;;5032342;28;20411;-53
2022/08/11 11:26:24;;;;;;;9.85;2.00;;;31.30;43.60;;;;;;5031805;28;20048;-54
2022/08/11 11:29:24;;;;;;;7.28;2.15;;;31.30;43.20;;;;;;5031772;28;20045;-55
2022/08/11 11:32:14;;;;;;;12.63;2.17;;;31.40;43.40;;;;;;5032100;28;20043;-54
2022/08/11 11:35:01;;;;;;;3.30;1.65;;;31.60;43.60;;;;;;5031611;28;20041;-54
2022/08/11 11:37:32;;;;;;;3.25;1.80;;;31.60;43.20;;;;;;5031983;28;20063;-54
2022/08/11 11:39:58;;;;;;;7.88;2.00;;;31.60;43.40;;;;;;5013799;28;20041;-54
2022/08/11 11:42:24;;;;;;;5.30;1.83;;;31.60;43.20;;;;;;5014497;28;20103;-54
2022/08/11 11:44:51;;;;;;;2.90;1.98;;;31.70;42.90;;;;;;5031334;28;20477;-54
2022/08/11 11:47:18;;;;;;;7.22;1.77;;;31.70;42.70;;;;;;5032074;28;20048;-53
2022/08/11 11:49:47;;;;;;;2.58;1.80;;;31.80;43.10;;;;;;5031024;28;20064;-54
2022/08/11 11:52:17;;;;;;;5.32;1.90;;;31.80;42.40;;;;;;5013105;28;20527;-52
2022/08/11 11:54:44;;;;;;;3.55;1.88;;;31.70;42.30;;;;;;5013778;28;20045;-54
2022/08/11 12:02:43;;;;;;;2.47;1.60;;;31.90;42.10;;;;;;5031083;28;20096;-54
2022/08/11 12:05:09;;;;;;;4.05;1.90;;;31.70;41.90;;;;;;5013985;28;20109;-52
2022/08/11 12:10:21;;;;;;;4.63;2.00;;;31.80;42.40;;;;;;5013946;28;20056;-55
2022/08/11 12:15:33;;;;;;;3.85;1.73;;;31.80;41.60;;;;;;5031472;28;20051;-54
2022/08/11 12:18:00;;;;;;;5.70;1.80;;;32.00;41.70;;;;;;4996516;28;20091;-53
2022/08/11 12:20:26;;;;;;;2.72;1.60;;;32.20;41.20;;;;;;5031162;28;20112;-55
2022/08/11 12:28:24;;;;;;;7.05;1.80;;;32.50;40.70;;;;;;5031350;28;20061;-55
2022/08/11 12:30:53;;;;;;;4.85;1.83;;;32.60;40.50;;;;;;4996314;28;20083;-55
2022/08/11 12:33:20;;;;;;;2.78;1.83;;;32.50;40.10;;;;;;5013372;28;20045;-54
2022/08/11 12:35:50;;;;;;;2.78;1.52;;;32.50;40.50;;;;;;5030554;28;20040;-53
2022/08/11 12:38:19;;;;;;;9.85;1.90;;;32.60;40.20;;;;;;5013290;28;20080;-54
2022/08/11 12:46:20;;;;;;;;;;;32.40;39.50;;;;;;5030922;28;20044;-54
2022/08/11 12:51:57;;;;;;;8.43;1.75;;;32.30;39.40;;;;;;5031301;28;20052;-54
2022/08/11 12:54:39;;;;;;;3.17;1.45;;;32.10;39.40;;;;;;5030606;28;20062;-54
2022/08/11 13:06:02;;;;;;;4.85;1.65;;;32.10;39.40;;;;;;5011992;28;20095;-55
2022/08/11 13:08:32;;;;;;;2.35;1.60;;;32.30;39.30;;;;;;5030313;28;20045;-55
2022/08/11 13:13:47;;;;;;;9.45;1.60;;;32.40;38.70;;;;;;5029810;28;20102;-54
2022/08/11 13:16:13;;;;;;;2.90;1.40;;;32.20;38.10;;;;;;5029865;28;20051;-54
2022/08/11 13:18:41;;;;;;;6.07;1.50;;;32.20;38.90;;;;;;5029963;28;20045;-56
2022/08/11 13:21:10;;;;;;;11.93;1.63;;;32.50;38.80;;;;;;5012643;28;20130;-55
2022/08/11 13:23:38;;;;;;;4.05;1.80;;;32.80;38.60;;;;;;5030132;28;20045;-55
2022/08/11 13:26:07;;;;;;;4.80;1.63;;;32.80;38.30;;;;;;5030046;28;20046;-54
2022/08/11 13:28:38;;;;;;;7.95;1.80;;;32.80;38.20;;;;;;5029935;28;20049;-55
2022/08/11 13:31:11;;;;;;;3.13;1.60;;;32.60;37.90;;;;;;5029500;28;20064;-55
2022/08/11 13:33:48;;;;;;;3.67;1.70;;;32.40;37.90;;;;;;5030362;28;20053;-55
2022/08/11 13:36:19;;;;;;;4.57;1.60;;;32.40;37.50;;;;;;5030225;28;20048;-55
2022/08/11 13:38:45;;;;;;;2.88;1.52;;;32.30;37.90;;;;;;5028834;28;20043;-55
2022/08/11 13:43:55;;;;;;;2.63;1.45;;;32.30;37.90;;;;;;5028990;28;20052;-55
2022/08/11 13:46:23;;;;;;;6.53;1.80;;;32.50;38.00;;;;;;5012731;28;20045;-56
2022/08/11 13:48:54;;;;;;;4.20;1.67;;;32.60;37.60;;;;;;5029568;28;20051;-55
2022/08/11 13:51:34;;;;;;;8.68;1.80;;;32.50;36.90;;;;;;5012049;28;20049;-55
2022/08/11 13:54:04;;;;;;;5.30;1.60;;;32.40;37.20;;;;;;5011556;28;20045;-55
2022/08/11 13:56:31;;;;;;;4.45;1.60;;;32.50;37.50;;;;;;5012390;28;20077;-55
2022/08/11 13:58:59;;;;;;;3.92;1.70;;;32.40;37.60;;;;;;5011187;28;20048;-55
2022/08/11 14:01:32;;;;;;;3.70;1.60;;;32.50;37.50;;;;;;5029410;28;20046;-55
2022/08/11 14:04:19;;;;;;;3.40;1.50;;;32.50;37.50;;;;;;5028690;28;20050;-55
2022/08/11 14:06:50;;;;;;;1.95;1.40;;;32.60;37.60;;;;;;5029188;28;20077;-55
2022/08/11 14:09:24;;;;;;;3.58;1.60;;;32.60;37.10;;;;;;5029544;28;20080;-55
2022/08/11 14:14:36;;;;;;;3.40;1.50;;;32.60;37.00;;;;;;5028795;28;20037;-55
2022/08/11 14:17:08;;;;;;;4.40;1.63;;;32.60;37.20;;;;;;5031501;28;20107;-55
2022/08/11 14:19:41;;;;;;;2.47;1.48;;;32.50;37.00;;;;;;5033388;28;20116;-55
2022/08/11 14:22:07;;;;;;;3.28;1.60;;;32.60;36.80;;;;;;5033180;28;20040;-55
2022/08/11 14:24:39;;;;;;;7.22;1.60;;;32.60;37.30;;;;;;5015480;28;20474;-55
2022/08/11 14:27:07;;;;;;;2.97;1.55;;;32.60;37.10;;;;;;5026582;28;20045;-55
2022/08/11 14:29:37;;;;;;;3.83;1.58;;;32.50;37.00;;;;;;5000500;28;20056;-55
2022/08/11 14:32:07;;;;;;;2.50;1.40;;;32.50;37.20;;;;;;5031578;28;20687;-55
2022/08/11 14:34:35;;;;;;;3.92;1.40;;;32.40;37.30;;;;;;5011800;28;20045;-55
2022/08/11 14:37:05;;;;;;;10.43;1.50;;;32.50;37.40;;;;;;5012624;28;20477;-55
2022/08/11 14:39:34;;;;;;;3.38;1.60;;;32.60;37.60;;;;;;5012088;28;20095;-55
2022/08/11 14:47:53;;;;;;;4.13;1.55;;;32.80;36.50;;;;;;5031310;28;20392;-55
2022/08/11 14:50:24;;;;;;;2.70;1.48;;;32.70;36.70;;;;;;5030947;28;20553;-55
2022/08/11 14:52:55;;;;;;;4.90;1.70;;;32.70;36.70;;;;;;5029788;28;20045;-55
2022/08/11 14:58:11;;;;;;;3.17;1.50;;;32.60;37.20;;;;;;5031882;28;20137;-55
2022/08/11 15:00:39;;;;;;;5.00;1.70;;;32.50;37.30;;;;;;5015098;28;20041;-54
2022/08/11 15:03:09;;;;;;;8.27;1.70;;;32.60;37.30;;;;;;5032387;28;20124;-55
2022/08/11 15:05:47;;;;;;;8.88;1.60;;;32.60;37.50;;;;;;5015058;28;20048;-55
2022/08/11 15:08:14;;;;;;;5.28;1.60;;;32.50;36.80;;;;;;5032381;28;20401;-55
2022/08/11 15:10:40;;;;;;;5.32;1.60;;;32.40;37.00;;;;;;5032296;28;20147;-55
2022/08/11 15:13:06;;;;;;;6.03;1.58;;;32.50;37.30;;;;;;5032053;28;20529;-55
2022/08/11 15:18:19;;;;;;;9.55;1.67;;;32.60;37.40;;;;;;5032136;28;20183;-55
2022/08/11 15:37:25;;;;;;;5.53;1.70;;;32.60;37.90;;;;;;5031676;28;20041;-55
2022/08/11 15:37:44;;;;;;;9.05;1.70;;;32.20;39.70;;;;;;4990160;28;20397;-54
2022/08/11 15:46:16;;;;;;;7.53;1.60;;;31.80;40.10;;;;;;5030948;28;20131;-54
2022/08/11 15:48:53;;;;;;;3.13;1.70;;;31.90;40.00;;;;;;5013618;28;20393;-55
2022/08/11 15:51:28;;;;;;;9.18;1.70;;;31.90;39.80;;;;;;5030475;28;20045;-55
2022/08/11 15:53:57;;;;;;;6.32;1.60;;;31.90;40.90;;;;;;5030220;28;20076;-55
2022/08/11 15:56:27;;;;;;;6.95;1.83;;;31.90;40.50;;;;;;5031375;28;20038;-55
2022/08/11 16:04:29;;;;;;;3.72;1.70;;;31.70;40.40;;;;;;5031787;28;20056;-55
2022/08/11 16:07:10;;;;;;;7.22;1.60;;;31.50;40.70;;;;;;5031352;28;20038;-54
2022/08/11 16:09:54;;;;;;;6.25;1.80;;;31.40;40.90;;;;;;5030523;28;20033;-55
2022/08/11 16:12:27;;;;;;;4.03;1.83;;;31.40;41.30;;;;;;5013650;28;20121;-55
2022/08/11 16:17:52;;;;;;;6.53;1.90;;;31.30;41.40;;;;;;5031032;28;20385;-54
2022/08/11 16:20:23;;;;;;;5.65;1.70;;;31.20;41.50;;;;;;4996025;28;20050;-54
2022/08/11 16:22:53;;;;;;;5.38;1.80;;;31.20;41.90;;;;;;4998263;28;20103;-54
2022/08/11 16:25:22;;;;;;;4.75;1.73;;;31.10;42.00;;;;;;5027472;28;20509;-54
2022/08/11 16:28:04;;;;;;;7.18;1.83;;;31.00;42.20;;;;;;5029223;28;20049;-52
2022/08/11 16:30:33;;;;;;;5.68;1.90;;;31.00;42.30;;;;;;4995344;28;20049;-53
2022/08/11 16:33:02;;;;;;;2.75;1.70;;;30.90;42.30;;;;;;5029922;28;20053;-50
2022/08/11 16:40:59;;;;;;;;;;;30.80;42.60;;;;;;5030043;28;20121;-55
2022/08/11 16:49:09;;;;;;;7.53;1.92;;;30.60;43.20;;;;;;5010043;28;20050;-55
2022/08/11 16:51:35;;;;;;;4.50;2.00;;;30.50;43.10;;;;;;5009937;28;20104;-53
2022/08/11 16:54:01;;;;;;;5.85;2.00;;;30.30;43.20;;;;;;5009500;28;20216;-53
2022/08/11 16:56:37;;;;;;;6.88;1.88;;;30.20;43.20;;;;;;5009982;28;20058;-54
2022/08/11 16:59:14;;;;;;;6.22;2.10;;;30.20;43.50;;;;;;5009613;28;20046;-53
2022/08/11 17:01:54;;;;;;;7.18;2.00;;;30.10;43.80;;;;;;4992046;28;20073;-53
2022/08/11 17:13:39;;;;;;;5.13;2.00;;;29.90;44.10;;;;;;5010707;28;20126;-54
2022/08/11 17:16:10;;;;;;;8.38;2.22;;;29.90;44.30;;;;;;5029909;28;20595;-54
2022/08/11 17:18:57;;;;;;;5.50;2.00;;;29.80;44.20;;;;;;5029041;28;20048;-54
2022/08/11 17:21:25;;;;;;;7.10;2.28;;;29.80;44.30;;;;;;5011387;28;20117;-53
2022/08/11 17:23:54;;;;;;;5.45;2.45;;;29.60;44.40;;;;;;5011223;28;20157;-55
2022/08/11 17:26:53;;;;;;;4.32;2.30;;;29.60;44.80;;;;;;5010974;28;20049;-55
2022/08/11 17:29:17;;;;;;;7.25;2.13;;;29.50;44.40;;;;;;5028852;28;20033;-54
2022/08/11 17:37:14;;;;;;;3.85;2.20;;;29.40;44.70;;;;;;5028542;28;20076;-54
2022/08/11 17:39:41;;;;;;;5.97;2.20;;;29.30;44.80;;;;;;5011156;28;20556;-55
2022/08/11 17:50:37;;;;;;;7.05;2.00;;;29.20;45.10;;;;;;4950111;28;20047;-52
2022/08/11 18:01:20;;;;;;;8.30;2.40;;;28.80;45.30;;;;;;4952545;29;20138;-53
2022/08/11 18:03:48;;;;;;;4.65;2.13;;;28.80;45.50;;;;;;4951933;29;20163;-51
2022/08/11 18:06:17;;;;;;;6.32;1.95;;;28.70;45.80;;;;;;4951928;29;20059;-52
